Time;durP1;ratioP1;P1;durP2;ratioP2;P2;SDS_P1;SDS_P2;PMS_P1;PMS_P2;Temp;Humidity;BMP_temperature;BMP_pressure;BME280_temperature;BME280_humidity;BME280_pressure;Samples;Min_cycle;Max_cycle;Signal;HPM_P1;HPM_P2
2022/12/06 00:01:02;;;;;;;3.23;1.50;;;;;;;;;;5022763;28;20439;-73
2022/12/06 00:03:28;;;;;;;4.03;1.60;;;;;;;;;;5023054;28;20196;-73
2022/12/06 00:05:58;;;;;;;7.13;1.93;;;;;;;;;;5022561;28;20446;-73
2022/12/06 00:08:23;;;;;;;4.50;1.90;;;;;;;;;;5020349;28;20180;-73
2022/12/06 00:10:49;;;;;;;3.13;1.40;;;;;;;;;;5006834;28;20602;-73
2022/12/06 00:13:14;;;;;;;2.60;1.80;;;;;;;;;;5023217;28;20208;-73
2022/12/06 00:15:39;;;;;;;2.93;1.27;;;;;;;;;;5023120;28;20700;-73
2022/12/06 00:18:05;;;;;;;2.73;1.40;;;;;;;;;;5021345;28;20195;-73
2022/12/06 00:20:30;;;;;;;2.73;1.50;;;;;;;;;;5016786;28;20208;-73
2022/12/06 00:22:56;;;;;;;3.63;1.57;;;;;;;;;;5024865;28;20207;-73
2022/12/06 00:25:21;;;;;;;3.73;1.67;;;;;;;;;;5021584;28;20181;-73
2022/12/06 00:27:46;;;;;;;3.60;1.40;;;;;;;;;;5017031;28;20177;-73
2022/12/06 00:30:11;;;;;;;4.67;1.20;;;;;;;;;;5013643;28;20991;-73
2022/12/06 00:32:37;;;;;;;3.43;1.63;;;;;;;;;;5005801;28;20185;-73
2022/12/06 00:35:02;;;;;;;4.00;1.33;;;;;;;;;;5016685;28;20185;-73
2022/12/06 00:37:27;;;;;;;2.43;1.13;;;;;;;;;;5017446;28;20295;-73
2022/12/06 00:39:53;;;;;;;4.57;1.47;;;;;;;;;;5004160;28;20216;-73
2022/12/06 00:42:18;;;;;;;3.30;1.50;;;;;;;;;;5021810;28;20545;-73
2022/12/06 00:44:43;;;;;;;4.47;1.70;;;;;;;;;;5017085;28;20176;-73
2022/12/06 00:47:08;;;;;;;4.83;1.67;;;;;;;;;;5014716;28;20668;-73
2022/12/06 00:49:34;;;;;;;4.33;1.43;;;;;;;;;;5016641;28;20204;-73
2022/12/06 00:51:59;;;;;;;6.13;1.60;;;;;;;;;;5018155;28;20185;-73
2022/12/06 00:54:24;;;;;;;3.53;1.27;;;;;;;;;;5022557;28;20184;-73
2022/12/06 00:56:49;;;;;;;2.90;1.20;;;;;;;;;;5024235;28;20183;-73
2022/12/06 00:59:15;;;;;;;4.90;1.20;;;;;;;;;;5021503;28;20204;-73
2022/12/06 01:01:40;;;;;;;1.90;1.10;;;;;;;;;;5020528;28;20565;-73
2022/12/06 01:04:06;;;;;;;2.33;1.10;;;;;;;;;;5019790;28;20188;-74
2022/12/06 01:06:32;;;;;;;4.93;1.47;;;;;;;;;;5005028;28;20776;-73
2022/12/06 01:08:59;;;;;;;1.93;1.23;;;;;;;;;;5019406;28;20266;-74
2022/12/06 01:11:25;;;;;;;1.63;1.00;;;;;;;;;;5017607;28;20443;-73
2022/12/06 01:13:51;;;;;;;4.13;1.43;;;;;;;;;;5020034;28;23369;-73
2022/12/06 01:16:18;;;;;;;2.07;1.10;;;;;;;;;;5017042;28;20659;-73
2022/12/06 01:18:43;;;;;;;1.57;1.47;;;;;;;;;;5017307;28;20203;-73
2022/12/06 01:21:10;;;;;;;2.13;1.30;;;;;;;;;;5020284;28;20471;-73
2022/12/06 01:23:35;;;;;;;1.93;1.10;;;;;;;;;;5020540;28;20181;-73
2022/12/06 01:26:02;;;;;;;2.30;1.13;;;;;;;;;;5001896;28;20546;-73
2022/12/06 01:28:27;;;;;;;2.10;1.10;;;;;;;;;;5030247;23;20235;-76
2022/12/06 01:30:52;;;;;;;4.70;1.60;;;;;;;;;;5030709;28;20437;-78
2022/12/06 01:33:18;;;;;;;2.50;1.80;;;;;;;;;;5032129;28;20171;-77
2022/12/06 01:35:43;;;;;;;1.73;1.23;;;;;;;;;;5033326;28;20192;-75
2022/12/06 01:38:09;;;;;;;1.97;1.07;;;;;;;;;;5034071;28;20279;-76
2022/12/06 01:40:38;;;;;;;3.23;1.50;;;;;;;;;;5030129;28;20186;-77
2022/12/06 01:43:03;;;;;;;2.47;1.13;;;;;;;;;;5012635;28;20184;-76
2022/12/06 01:45:29;;;;;;;3.93;1.23;;;;;;;;;;5030074;28;20433;-77
2022/12/06 01:47:54;;;;;;;3.47;1.20;;;;;;;;;;5012445;28;20214;-76
2022/12/06 01:50:26;;;;;;;3.40;1.30;;;;;;;;;;5010437;28;20206;-76
2022/12/06 01:52:52;;;;;;;2.43;1.20;;;;;;;;;;5030646;28;20215;-77
2022/12/06 01:55:18;;;;;;;6.10;1.50;;;;;;;;;;5010666;28;20965;-76
2022/12/06 01:57:44;;;;;;;1.80;1.47;;;;;;;;;;5032166;28;20388;-76
2022/12/06 02:00:09;;;;;;;2.60;1.43;;;;;;;;;;5034533;28;20554;-77
2022/12/06 02:02:34;;;;;;;3.27;1.20;;;;;;;;;;5031839;28;20215;-76
2022/12/06 02:05:00;;;;;;;2.50;1.37;;;;;;;;;;5032490;28;20187;-78
2022/12/06 02:07:26;;;;;;;1.67;1.00;;;;;;;;;;5035801;28;20589;-76
2022/12/06 02:09:52;;;;;;;2.23;1.20;;;;;;;;;;5014497;28;20214;-76
2022/12/06 02:12:17;;;;;;;1.40;1.27;;;;;;;;;;5032083;28;20218;-78
2022/12/06 02:14:45;;;;;;;3.23;1.30;;;;;;;;;;5034500;28;20439;-76
2022/12/06 02:17:23;;;;;;;2.13;1.10;;;;;;;;;;5036526;28;20222;-79
2022/12/06 02:20:03;;;;;;;1.37;0.90;;;;;;;;;;5037163;28;20493;-77
2022/12/06 02:22:42;;;;;;;3.23;1.27;;;;;;;;;;5036232;28;20414;-77
2022/12/06 02:25:26;;;;;;;4.47;1.37;;;;;;;;;;5036231;28;20411;-78
2022/12/06 02:27:54;;;;;;;1.63;1.10;;;;;;;;;;5015313;28;20435;-78
2022/12/06 02:30:33;;;;;;;5.17;1.10;;;;;;;;;;5033005;28;20540;-75
2022/12/06 02:33:07;;;;;;;2.33;1.07;;;;;;;;;;5015789;28;20422;-75
2022/12/06 02:35:35;;;;;;;1.90;1.13;;;;;;;;;;5028199;28;20430;-75
2022/12/06 02:38:07;;;;;;;1.90;0.90;;;;;;;;;;5024723;28;20480;-75
2022/12/06 02:40:37;;;;;;;2.00;1.10;;;;;;;;;;5029779;28;20485;-76
2022/12/06 02:43:11;;;;;;;1.10;0.90;;;;;;;;;;5027993;28;20510;-76
2022/12/06 02:45:39;;;;;;;2.00;1.10;;;;;;;;;;5008802;28;20431;-78
2022/12/06 02:48:06;;;;;;;3.50;1.30;;;;;;;;;;5031653;28;20964;-78
2022/12/06 02:50:36;;;;;;;3.30;1.10;;;;;;;;;;5013139;28;20835;-76
2022/12/06 02:53:02;;;;;;;2.83;1.40;;;;;;;;;;5013423;28;20552;-77
2022/12/06 02:55:29;;;;;;;3.77;1.33;;;;;;;;;;5028301;28;20418;-76
2022/12/06 02:57:56;;;;;;;1.33;1.10;;;;;;;;;;5011730;28;20521;-75
2022/12/06 03:00:31;;;;;;;2.90;1.20;;;;;;;;;;5019508;28;20437;-75
2022/12/06 03:03:06;;;;;;;1.93;1.23;;;;;;;;;;5014313;28;20436;-76
2022/12/06 03:05:38;;;;;;;3.10;1.30;;;;;;;;;;5028790;28;20446;-77
2022/12/06 03:08:06;;;;;;;2.50;1.37;;;;;;;;;;5030204;28;20518;-77
2022/12/06 03:10:45;;;;;;;1.73;1.20;;;;;;;;;;5027410;28;20438;-77
2022/12/06 03:13:17;;;;;;;2.60;1.30;;;;;;;;;;5017173;28;20487;-78
2022/12/06 03:15:51;;;;;;;3.70;1.40;;;;;;;;;;5035918;28;20999;-77
2022/12/06 03:18:31;;;;;;;2.70;1.23;;;;;;;;;;5032683;28;20561;-77
2022/12/06 03:20:59;;;;;;;1.93;1.27;;;;;;;;;;5010611;28;20802;-77
2022/12/06 03:23:28;;;;;;;2.30;1.10;;;;;;;;;;5028836;28;20472;-78
2022/12/06 03:25:55;;;;;;;2.50;1.17;;;;;;;;;;5025676;28;20426;-77
2022/12/06 03:28:21;;;;;;;4.80;1.40;;;;;;;;;;5033825;28;20455;-77
2022/12/06 03:30:49;;;;;;;1.83;1.20;;;;;;;;;;5015071;28;20431;-78
2022/12/06 03:33:14;;;;;;;2.73;1.27;;;;;;;;;;5033295;28;20527;-78
2022/12/06 03:35:41;;;;;;;1.73;1.23;;;;;;;;;;5035064;28;20438;-79
2022/12/06 03:38:09;;;;;;;1.60;1.20;;;;;;;;;;5039535;28;20434;-81
2022/12/06 03:40:35;;;;;;;2.33;1.37;;;;;;;;;;5033039;28;20804;-78
2022/12/06 03:43:02;;;;;;;2.60;1.63;;;;;;;;;;5018537;28;20421;-77
2022/12/06 03:45:33;;;;;;;6.20;1.60;;;;;;;;;;5037185;28;20430;-77
2022/12/06 03:48:33;;;;;;;4.70;1.20;;;;;;;;;;5038067;28;20406;-78
2022/12/06 03:51:03;;;;;;;3.43;1.23;;;;;;;;;;4943999;29;20450;-77
2022/12/06 03:53:29;;;;;;;1.93;1.10;;;;;;;;;;5014152;28;20416;-78
2022/12/06 03:55:54;;;;;;;2.63;1.03;;;;;;;;;;5015646;28;20440;-78
2022/12/06 03:58:20;;;;;;;1.43;1.00;;;;;;;;;;5022012;28;20236;-78
2022/12/06 04:00:45;;;;;;;0.97;0.60;;;;;;;;;;5038445;28;20176;-78
2022/12/06 04:03:10;;;;;;;1.07;0.70;;;;;;;;;;5025172;28;20212;-79
2022/12/06 04:05:36;;;;;;;1.60;0.60;;;;;;;;;;5039559;28;20172;-78
2022/12/06 04:08:01;;;;;;;0.70;0.70;;;;;;;;;;5039339;28;20173;-78
2022/12/06 04:10:26;;;;;;;2.73;0.70;;;;;;;;;;5035494;28;20168;-78
2022/12/06 04:13:00;;;;;;;2.50;0.60;;;;;;;;;;5036850;28;20184;-77
2022/12/06 04:15:28;;;;;;;2.03;0.60;;;;;;;;;;5037051;28;20176;-78
2022/12/06 04:23:24;;;;;;;1.33;0.70;;;;;;;;;;5038766;28;20418;-81
2022/12/06 04:25:50;;;;;;;1.73;0.70;;;;;;;;;;5036151;28;20925;-78
2022/12/06 04:39:10;;;;;;;1.50;0.70;;;;;;;;;;5027238;28;20465;-77
2022/12/06 04:44:20;;;;;;;3.50;0.60;;;;;;;;;;5032639;28;20217;-78
2022/12/06 04:46:45;;;;;;;0.90;0.63;;;;;;;;;;5029227;28;20800;-78
2022/12/06 04:49:10;;;;;;;0.60;0.60;;;;;;;;;;5031715;28;20300;-78
2022/12/06 04:51:36;;;;;;;1.80;1.10;;;;;;;;;;5036068;28;20191;-77
2022/12/06 04:54:01;;;;;;;1.20;0.70;;;;;;;;;;5041966;28;20203;-78
2022/12/06 04:56:26;;;;;;;1.23;0.70;;;;;;;;;;5036140;28;20260;-79
2022/12/06 04:58:52;;;;;;;3.57;0.70;;;;;;;;;;5037226;28;20733;-78
2022/12/06 05:01:17;;;;;;;1.63;0.80;;;;;;;;;;5009765;28;20299;-78
2022/12/06 05:03:43;;;;;;;1.00;0.67;;;;;;;;;;5018131;28;20295;-76
2022/12/06 05:06:08;;;;;;;1.23;0.60;;;;;;;;;;5035500;28;20173;-77
2022/12/06 05:08:34;;;;;;;3.90;0.73;;;;;;;;;;5034707;28;20230;-77
2022/12/06 05:10:59;;;;;;;3.20;0.80;;;;;;;;;;5028497;28;20208;-78
2022/12/06 05:13:25;;;;;;;1.57;0.60;;;;;;;;;;5030901;28;20180;-78
2022/12/06 05:15:51;;;;;;;1.07;0.70;;;;;;;;;;5030665;28;20341;-78
2022/12/06 05:18:16;;;;;;;1.20;0.67;;;;;;;;;;5029744;28;20253;-77
2022/12/06 05:20:42;;;;;;;1.20;0.80;;;;;;;;;;5030941;28;20906;-77
2022/12/06 05:23:07;;;;;;;2.80;0.70;;;;;;;;;;5036163;28;20172;-77
2022/12/06 05:25:32;;;;;;;1.10;0.80;;;;;;;;;;5031299;28;20215;-77
2022/12/06 05:27:58;;;;;;;1.30;0.70;;;;;;;;;;5027287;28;20186;-78
2022/12/06 05:30:23;;;;;;;1.30;0.70;;;;;;;;;;5027449;28;20183;-77
2022/12/06 05:32:48;;;;;;;1.53;0.80;;;;;;;;;;5004222;28;20183;-76
2022/12/06 05:35:14;;;;;;;1.23;0.70;;;;;;;;;;5028631;28;20687;-78
2022/12/06 05:37:39;;;;;;;0.77;0.60;;;;;;;;;;5031890;28;20205;-77
2022/12/06 05:40:05;;;;;;;2.13;0.80;;;;;;;;;;5029990;28;20576;-78
2022/12/06 05:42:30;;;;;;;1.70;0.70;;;;;;;;;;5014036;28;20674;-78
2022/12/06 05:44:55;;;;;;;1.30;0.70;;;;;;;;;;5031035;28;20352;-78
2022/12/06 05:47:21;;;;;;;1.00;0.70;;;;;;;;;;5029810;28;20181;-77
2022/12/06 05:49:46;;;;;;;1.50;0.70;;;;;;;;;;5031353;28;20207;-76
2022/12/06 05:52:11;;;;;;;1.27;0.63;;;;;;;;;;5007704;28;20183;-78
2022/12/06 05:54:36;;;;;;;2.10;0.80;;;;;;;;;;5031296;28;20180;-79
2022/12/06 05:57:02;;;;;;;0.63;0.60;;;;;;;;;;5032797;28;20658;-77
2022/12/06 05:59:27;;;;;;;0.80;0.80;;;;;;;;;;5018134;28;20200;-78
2022/12/06 06:01:53;;;;;;;2.10;0.70;;;;;;;;;;5036233;28;20551;-77
2022/12/06 06:04:18;;;;;;;1.40;0.70;;;;;;;;;;5036339;28;20180;-78
2022/12/06 06:06:43;;;;;;;1.40;0.80;;;;;;;;;;5032464;28;20188;-77
2022/12/06 06:09:09;;;;;;;1.77;0.90;;;;;;;;;;5036548;28;20203;-79
2022/12/06 06:11:34;;;;;;;0.97;0.77;;;;;;;;;;5015992;28;20226;-78
2022/12/06 06:13:59;;;;;;;1.13;0.77;;;;;;;;;;5037282;28;20176;-79
2022/12/06 06:16:25;;;;;;;1.00;0.90;;;;;;;;;;5035170;28;20876;-78
2022/12/06 06:18:50;;;;;;;1.67;1.13;;;;;;;;;;5018762;28;20208;-77
2022/12/06 06:21:15;;;;;;;1.90;0.90;;;;;;;;;;5037424;28;20179;-77
2022/12/06 06:23:41;;;;;;;1.97;0.80;;;;;;;;;;5020572;28;20177;-77
2022/12/06 06:26:10;;;;;;;4.23;0.80;;;;;;;;;;5034799;28;20184;-77
2022/12/06 06:28:36;;;;;;;1.67;1.10;;;;;;;;;;5019589;28;20212;-77
2022/12/06 06:31:02;;;;;;;1.10;1.00;;;;;;;;;;5037537;28;20412;-78
2022/12/06 06:33:28;;;;;;;2.93;0.93;;;;;;;;;;5025222;28;20180;-77
2022/12/06 06:35:53;;;;;;;2.07;1.60;;;;;;;;;;5035808;28;20410;-76
2022/12/06 06:38:19;;;;;;;3.57;2.77;;;;;;;;;;5029606;28;20201;-77
2022/12/06 06:40:44;;;;;;;2.93;2.60;;;;;;;;;;5033936;28;20179;-77
2022/12/06 06:43:19;;;;;;;2.07;1.40;;;;;;;;;;5019802;28;20180;-77
2022/12/06 06:45:52;;;;;;;1.27;1.10;;;;;;;;;;5017024;28;20184;-77
2022/12/06 06:48:18;;;;;;;2.70;2.00;;;;;;;;;;5021537;28;20433;-77
2022/12/06 06:50:43;;;;;;;5.70;3.37;;;;;;;;;;5034863;28;20507;-77
2022/12/06 06:53:08;;;;;;;2.90;1.80;;;;;;;;;;5030482;28;20538;-78
2022/12/06 06:55:35;;;;;;;2.83;1.40;;;;;;;;;;5029313;28;20181;-77
2022/12/06 06:58:00;;;;;;;4.43;2.90;;;;;;;;;;5015154;28;20176;-77
2022/12/06 07:00:25;;;;;;;2.77;2.30;;;;;;;;;;5015060;28;20969;-77
2022/12/06 07:02:51;;;;;;;3.57;2.60;;;;;;;;;;5038945;28;20183;-78
2022/12/06 07:05:16;;;;;;;2.13;1.93;;;;;;;;;;5022316;28;20180;-77
2022/12/06 07:07:41;;;;;;;4.03;3.63;;;;;;;;;;5030773;28;20173;-78
2022/12/06 07:10:07;;;;;;;7.20;3.30;;;;;;;;;;5023567;28;20196;-77
2022/12/06 07:12:32;;;;;;;5.10;4.70;;;;;;;;;;5035117;28;20176;-77
2022/12/06 07:14:58;;;;;;;3.40;3.10;;;;;;;;;;5021394;28;20190;-77
2022/12/06 07:17:23;;;;;;;4.37;2.53;;;;;;;;;;5039501;28;20283;-78
2022/12/06 07:19:49;;;;;;;1.70;1.60;;;;;;;;;;5025312;28;20208;-78
2022/12/06 07:22:14;;;;;;;1.93;1.80;;;;;;;;;;5039661;28;20182;-77
2022/12/06 07:24:39;;;;;;;2.47;1.57;;;;;;;;;;5039538;28;20176;-77
2022/12/06 07:27:05;;;;;;;2.03;1.50;;;;;;;;;;5038414;28;20180;-79
2022/12/06 07:29:30;;;;;;;1.80;1.40;;;;;;;;;;5038486;28;20277;-78
2022/12/06 07:31:55;;;;;;;1.30;1.20;;;;;;;;;;5032591;28;20279;-79
2022/12/06 07:34:22;;;;;;;3.53;1.43;;;;;;;;;;5038424;28;20177;-77
2022/12/06 07:36:47;;;;;;;1.20;1.10;;;;;;;;;;5020747;28;20214;-77
2022/12/06 07:39:13;;;;;;;2.20;1.30;;;;;;;;;;5036864;28;20490;-77
2022/12/06 07:47:06;;;;;;;1.57;1.43;;;;;;;;;;5039100;28;20531;-77
2022/12/06 07:49:32;;;;;;;2.20;1.50;;;;;;;;;;5018983;28;20466;-77
2022/12/06 07:51:57;;;;;;;1.70;1.20;;;;;;;;;;5036320;28;20176;-76
2022/12/06 07:54:23;;;;;;;1.60;1.20;;;;;;;;;;5016373;28;20176;-77
2022/12/06 07:56:48;;;;;;;1.53;1.10;;;;;;;;;;5027680;28;20611;-76
2022/12/06 07:59:14;;;;;;;1.80;1.40;;;;;;;;;;5038048;28;20259;-76
2022/12/06 08:01:39;;;;;;;1.47;1.30;;;;;;;;;;5024387;28;20263;-77
2022/12/06 08:04:05;;;;;;;1.93;1.40;;;;;;;;;;5037823;28;20196;-76
2022/12/06 08:06:31;;;;;;;1.40;1.30;;;;;;;;;;5021497;28;20650;-77
2022/12/06 08:08:56;;;;;;;2.20;1.67;;;;;;;;;;5031777;28;20486;-79
2022/12/06 08:11:23;;;;;;;1.13;0.93;;;;;;;;;;5033647;28;20216;-78
2022/12/06 08:13:48;;;;;;;3.40;1.60;;;;;;;;;;5003904;28;20230;-76
2022/12/06 08:16:14;;;;;;;2.07;1.87;;;;;;;;;;5033698;28;20875;-77
2022/12/06 08:18:40;;;;;;;2.80;1.70;;;;;;;;;;5036903;28;20208;-77
2022/12/06 08:21:05;;;;;;;2.50;1.50;;;;;;;;;;5033425;28;20180;-77
2022/12/06 08:23:31;;;;;;;1.57;1.40;;;;;;;;;;5024414;28;20258;-77
2022/12/06 08:25:57;;;;;;;2.57;1.70;;;;;;;;;;5022163;28;20184;-77
2022/12/06 08:28:22;;;;;;;3.30;1.80;;;;;;;;;;5034783;28;20204;-80
2022/12/06 08:30:48;;;;;;;3.23;1.70;;;;;;;;;;5039724;28;20415;-78
2022/12/06 08:33:13;;;;;;;2.50;2.03;;;;;;;;;;5020658;28;20655;-76
2022/12/06 08:35:39;;;;;;;2.93;1.90;;;;;;;;;;5037734;28;20327;-78
2022/12/06 08:38:04;;;;;;;1.47;1.37;;;;;;;;;;5035534;28;20193;-79
2022/12/06 08:40:29;;;;;;;2.03;1.80;;;;;;;;;;5039835;28;20200;-78
2022/12/06 08:42:55;;;;;;;4.40;1.63;;;;;;;;;;5035458;28;20238;-77
2022/12/06 08:45:20;;;;;;;1.80;1.70;;;;;;;;;;5032119;28;20177;-78
2022/12/06 08:47:45;;;;;;;2.40;1.93;;;;;;;;;;5033835;28;20183;-79
2022/12/06 08:50:11;;;;;;;3.13;2.20;;;;;;;;;;5011447;28;20222;-76
2022/12/06 08:52:36;;;;;;;2.50;1.87;;;;;;;;;;5037882;28;20172;-77
2022/12/06 08:55:01;;;;;;;2.90;2.10;;;;;;;;;;5017941;28;20651;-78
2022/12/06 08:57:27;;;;;;;2.30;1.80;;;;;;;;;;5015770;28;20326;-76
2022/12/06 08:59:52;;;;;;;6.00;2.13;;;;;;;;;;5036373;28;20204;-77
2022/12/06 09:02:18;;;;;;;3.10;2.57;;;;;;;;;;5037202;28;20176;-76
2022/12/06 09:04:43;;;;;;;2.60;2.40;;;;;;;;;;5036757;28;20172;-76
2022/12/06 09:07:08;;;;;;;3.70;1.90;;;;;;;;;;5033604;28;20659;-77
2022/12/06 09:09:34;;;;;;;2.77;1.97;;;;;;;;;;5019793;28;20910;-76
2022/12/06 09:11:59;;;;;;;5.07;2.50;;;;;;;;;;5035119;28;20187;-77
2022/12/06 09:14:24;;;;;;;3.77;2.20;;;;;;;;;;5022648;28;20590;-79
2022/12/06 09:16:51;;;;;;;3.17;2.20;;;;;;;;;;5018002;28;20175;-78
2022/12/06 09:19:17;;;;;;;2.37;2.00;;;;;;;;;;5007205;28;20216;-78
2022/12/06 09:21:42;;;;;;;4.70;2.40;;;;;;;;;;5034649;28;20593;-77
2022/12/06 09:24:10;;;;;;;6.93;2.33;;;;;;;;;;5022374;28;20763;-77
2022/12/06 09:26:35;;;;;;;5.07;2.20;;;;;;;;;;5036292;28;20178;-76
2022/12/06 09:29:04;;;;;;;3.17;2.00;;;;;;;;;;5026737;28;21058;-76
2022/12/06 09:31:29;;;;;;;2.70;1.90;;;;;;;;;;5024653;28;20698;-76
2022/12/06 09:33:54;;;;;;;4.80;2.57;;;;;;;;;;5036220;28;20490;-77
2022/12/06 09:36:24;;;;;;;2.33;1.90;;;;;;;;;;5019808;28;20241;-77
2022/12/06 09:38:52;;;;;;;2.53;1.63;;;;;;;;;;5026355;28;20235;-77
2022/12/06 09:41:23;;;;;;;1.97;1.73;;;;;;;;;;5025771;28;20438;-76
2022/12/06 09:43:49;;;;;;;2.40;2.13;;;;;;;;;;5023732;28;20431;-77
2022/12/06 09:46:24;;;;;;;4.20;2.30;;;;;;;;;;5031428;28;20428;-76
2022/12/06 09:48:56;;;;;;;2.50;2.10;;;;;;;;;;5032358;28;20223;-77
2022/12/06 09:51:28;;;;;;;2.90;2.20;;;;;;;;;;5028227;28;20442;-76
2022/12/06 09:53:59;;;;;;;4.10;2.90;;;;;;;;;;5017451;28;20438;-76
2022/12/06 09:56:51;;;;;;;2.60;2.13;;;;;;;;;;5035454;28;20417;-76
2022/12/06 09:59:28;;;;;;;2.60;2.10;;;;;;;;;;5000304;28;20463;-77
2022/12/06 10:02:14;;;;;;;2.27;2.03;;;;;;;;;;5027373;28;20418;-77
2022/12/06 10:04:58;;;;;;;2.50;1.93;;;;;;;;;;5027879;28;20492;-76
2022/12/06 10:07:23;;;;;;;5.57;2.63;;;;;;;;;;5020263;28;20431;-76
2022/12/06 10:09:58;;;;;;;2.20;1.90;;;;;;;;;;5028820;28;20450;-77
2022/12/06 10:12:36;;;;;;;4.40;2.20;;;;;;;;;;5035751;28;20254;-76
2022/12/06 10:15:11;;;;;;;4.90;2.63;;;;;;;;;;5038431;28;20493;-76
2022/12/06 10:17:51;;;;;;;5.60;2.70;;;;;;;;;;5032944;28;20431;-75
2022/12/06 10:20:16;;;;;;;5.27;2.53;;;;;;;;;;5017263;28;20458;-77
2022/12/06 10:23:00;;;;;;;4.47;2.80;;;;;;;;;;5034127;28;20465;-76
2022/12/06 10:25:50;;;;;;;3.63;2.40;;;;;;;;;;5035326;28;20176;-76
2022/12/06 10:28:30;;;;;;;6.03;2.50;;;;;;;;;;5034766;28;20458;-78
2022/12/06 10:31:00;;;;;;;3.20;2.00;;;;;;;;;;5035949;28;20949;-77
2022/12/06 10:33:28;;;;;;;5.40;2.37;;;;;;;;;;5035677;28;20905;-77
2022/12/06 10:36:05;;;;;;;3.27;1.93;;;;;;;;;;5021634;28;20466;-76
2022/12/06 10:38:33;;;;;;;2.77;2.10;;;;;;;;;;5034994;28;20568;-79
2022/12/06 10:41:02;;;;;;;4.17;1.90;;;;;;;;;;5017993;28;20410;-76
2022/12/06 10:43:31;;;;;;;4.23;2.60;;;;;;;;;;5032392;28;20507;-76
2022/12/06 10:48:43;;;;;;;3.00;2.50;;;;;;;;;;5036631;28;20495;-77
2022/12/06 10:51:14;;;;;;;4.03;2.20;;;;;;;;;;5034674;28;20460;-76
2022/12/06 10:53:44;;;;;;;2.93;2.10;;;;;;;;;;5032260;28;20430;-77
2022/12/06 10:56:25;;;;;;;7.23;2.30;;;;;;;;;;5036645;28;20948;-76
2022/12/06 10:58:57;;;;;;;2.67;1.90;;;;;;;;;;5034262;28;21046;-80
2022/12/06 11:01:25;;;;;;;2.60;1.67;;;;;;;;;;5036664;28;20944;-76
2022/12/06 11:04:08;;;;;;;10.47;2.33;;;;;;;;;;5033898;28;20426;-77
2022/12/06 11:06:33;;;;;;;5.13;1.63;;;;;;;;;;5035009;28;21094;-77
2022/12/06 11:09:11;;;;;;;2.43;1.30;;;;;;;;;;5032704;28;20583;-76
2022/12/06 11:11:37;;;;;;;2.57;1.67;;;;;;;;;;5035187;28;20173;-76
2022/12/06 11:14:10;;;;;;;1.87;1.67;;;;;;;;;;5034564;28;20493;-77
2022/12/06 11:16:38;;;;;;;4.53;1.50;;;;;;;;;;5021339;28;20434;-77
2022/12/06 11:19:13;;;;;;;3.90;1.33;;;;;;;;;;5032446;28;20467;-76
2022/12/06 11:21:45;;;;;;;2.07;1.40;;;;;;;;;;5019365;28;20504;-77
2022/12/06 11:24:18;;;;;;;4.17;1.63;;;;;;;;;;5034285;28;20433;-77
2022/12/06 11:26:59;;;;;;;3.77;1.83;;;;;;;;;;5020122;28;20434;-75
2022/12/06 11:29:25;;;;;;;2.97;2.10;;;;;;;;;;5021269;28;20981;-77
2022/12/06 11:31:52;;;;;;;2.10;1.60;;;;;;;;;;5036816;28;20492;-76
2022/12/06 11:34:26;;;;;;;3.50;1.60;;;;;;;;;;5032040;28;20560;-76
2022/12/06 11:36:53;;;;;;;2.30;1.50;;;;;;;;;;5030041;28;20437;-75
2022/12/06 11:39:19;;;;;;;3.17;1.93;;;;;;;;;;5032995;28;20461;-77
2022/12/06 11:41:47;;;;;;;3.50;1.90;;;;;;;;;;5035389;28;20939;-75
2022/12/06 11:44:19;;;;;;;1.30;1.20;;;;;;;;;;5031775;28;20176;-76
2022/12/06 11:46:47;;;;;;;2.63;1.60;;;;;;;;;;5035585;28;20483;-76
2022/12/06 11:49:19;;;;;;;2.57;1.53;;;;;;;;;;5040489;28;20518;-76
2022/12/06 11:51:44;;;;;;;3.40;2.07;;;;;;;;;;5039332;28;20419;-75
2022/12/06 11:54:20;;;;;;;1.93;1.60;;;;;;;;;;5035416;28;20426;-75
2022/12/06 11:56:45;;;;;;;3.33;1.67;;;;;;;;;;5040092;28;20183;-76
2022/12/06 11:59:20;;;;;;;4.00;1.77;;;;;;;;;;5016014;28;20466;-76
2022/12/06 12:01:47;;;;;;;3.53;2.03;;;;;;;;;;5039074;28;20191;-74
2022/12/06 12:04:29;;;;;;;3.93;1.40;;;;;;;;;;5040791;28;20449;-75
2022/12/06 12:06:58;;;;;;;4.10;2.27;;;;;;;;;;5016016;28;20434;-76
2022/12/06 12:09:25;;;;;;;3.50;1.70;;;;;;;;;;5038852;28;20525;-75
2022/12/06 12:11:58;;;;;;;5.80;1.97;;;;;;;;;;5036260;28;20434;-77
2022/12/06 12:14:26;;;;;;;2.80;1.57;;;;;;;;;;5034962;28;20435;-77
2022/12/06 12:16:55;;;;;;;3.57;1.90;;;;;;;;;;5013967;28;20491;-76
2022/12/06 12:19:26;;;;;;;3.67;1.30;;;;;;;;;;5040972;28;20458;-76
2022/12/06 12:21:52;;;;;;;4.07;1.50;;;;;;;;;;5039576;28;20430;-76
2022/12/06 12:24:53;;;;;;;2.20;1.53;;;;;;;;;;5020114;28;20434;-74
2022/12/06 12:27:24;;;;;;;3.23;1.17;;;;;;;;;;4947540;28;20974;-75
2022/12/06 12:30:09;;;;;;;3.23;1.30;;;;;;;;;;5003720;28;20509;-75
2022/12/06 12:32:35;;;;;;;1.97;1.20;;;;;;;;;;5039926;28;20450;-75
2022/12/06 12:35:17;;;;;;;3.03;1.57;;;;;;;;;;5039333;28;20419;-74
2022/12/06 12:37:42;;;;;;;2.37;1.40;;;;;;;;;;5036619;28;20215;-75
2022/12/06 12:40:20;;;;;;;2.73;1.67;;;;;;;;;;5032735;28;20552;-76
2022/12/06 12:42:45;;;;;;;2.23;1.17;;;;;;;;;;5034628;28;20180;-75
2022/12/06 12:45:16;;;;;;;3.57;1.57;;;;;;;;;;5039764;28;20403;-77
2022/12/06 12:47:54;;;;;;;5.10;1.63;;;;;;;;;;5036991;28;20176;-75
2022/12/06 12:50:22;;;;;;;3.23;1.50;;;;;;;;;;5037552;28;20533;-75
2022/12/06 12:52:48;;;;;;;3.77;1.60;;;;;;;;;;5013090;28;20871;-77
2022/12/06 12:55:19;;;;;;;2.70;1.83;;;;;;;;;;5038632;28;20485;-75
2022/12/06 12:57:49;;;;;;;1.93;1.50;;;;;;;;;;5021237;28;20202;-75
2022/12/06 13:00:18;;;;;;;3.80;1.50;;;;;;;;;;5033657;28;20499;-75
2022/12/06 13:02:46;;;;;;;2.80;1.50;;;;;;;;;;5036313;28;20426;-78
2022/12/06 13:05:17;;;;;;;2.10;1.20;;;;;;;;;;5040391;28;20481;-75
2022/12/06 13:07:42;;;;;;;5.00;1.50;;;;;;;;;;5035300;28;20779;-75
2022/12/06 13:10:11;;;;;;;2.10;1.43;;;;;;;;;;5028872;28;20450;-75
2022/12/06 13:12:36;;;;;;;1.40;1.03;;;;;;;;;;5031189;28;20183;-75
2022/12/06 13:15:05;;;;;;;1.60;1.03;;;;;;;;;;5032243;28;20501;-77
2022/12/06 13:17:32;;;;;;;1.93;1.10;;;;;;;;;;5023827;28;20702;-74
2022/12/06 13:19:57;;;;;;;3.50;1.27;;;;;;;;;;5015207;28;20498;-75
2022/12/06 13:22:28;;;;;;;2.30;1.13;;;;;;;;;;5012406;28;20524;-74
2022/12/06 13:25:01;;;;;;;2.93;1.10;;;;;;;;;;5037449;28;20172;-76
2022/12/06 13:27:30;;;;;;;6.23;1.67;;;;;;;;;;5035089;28;20906;-77
2022/12/06 13:30:00;;;;;;;2.97;1.67;;;;;;;;;;5035429;28;20552;-75
2022/12/06 13:32:36;;;;;;;5.80;1.43;;;;;;;;;;5020836;28;20418;-75
2022/12/06 13:35:04;;;;;;;1.80;1.07;;;;;;;;;;5018078;28;20522;-75
2022/12/06 13:37:29;;;;;;;4.57;1.57;;;;;;;;;;5036238;28;20412;-76
2022/12/06 13:39:55;;;;;;;2.90;1.20;;;;;;;;;;5022866;28;20764;-76
2022/12/06 13:42:36;;;;;;;6.87;1.30;;;;;;;;;;5036184;28;20176;-77
2022/12/06 13:45:02;;;;;;;3.03;1.50;;;;;;;;;;5034609;28;20437;-77
2022/12/06 13:47:27;;;;;;;2.07;1.30;;;;;;;;;;5035323;28;20415;-77
2022/12/06 13:49:56;;;;;;;4.70;1.40;;;;;;;;;;5036427;28;20462;-76
2022/12/06 13:52:41;;;;;;;2.50;1.53;;;;;;;;;;5032266;28;20695;-76
2022/12/06 13:55:24;;;;;;;2.27;1.77;;;;;;;;;;5032570;28;20439;-77
2022/12/06 13:57:55;;;;;;;2.33;1.93;;;;;;;;;;5036845;28;20411;-78
2022/12/06 14:00:27;;;;;;;2.70;1.70;;;;;;;;;;5016038;28;20497;-78
2022/12/06 14:02:53;;;;;;;3.90;1.90;;;;;;;;;;5028175;28;20451;-77
2022/12/06 14:05:37;;;;;;;2.60;1.70;;;;;;;;;;5040248;28;20577;-79
2022/12/06 14:08:02;;;;;;;4.67;2.20;;;;;;;;;;5036494;28;20418;-76
2022/12/06 14:10:28;;;;;;;4.37;2.10;;;;;;;;;;5031586;28;20912;-77
2022/12/06 14:12:59;;;;;;;3.20;1.77;;;;;;;;;;5038614;28;20180;-77
2022/12/06 14:15:25;;;;;;;5.00;1.90;;;;;;;;;;5020200;28;20180;-77
2022/12/06 14:17:50;;;;;;;2.90;2.23;;;;;;;;;;5036869;28;20417;-77
2022/12/06 14:20:23;;;;;;;2.50;1.50;;;;;;;;;;5036442;28;20199;-77
2022/12/06 14:22:48;;;;;;;2.63;1.67;;;;;;;;;;5037681;28;20559;-76
2022/12/06 14:25:19;;;;;;;3.20;1.87;;;;;;;;;;5034005;28;20608;-77
2022/12/06 14:27:45;;;;;;;2.80;1.53;;;;;;;;;;5019677;28;20172;-78
2022/12/06 14:30:15;;;;;;;4.63;1.73;;;;;;;;;;5035649;28;20442;-77
2022/12/06 14:32:42;;;;;;;3.73;1.97;;;;;;;;;;5033696;28;20948;-78
2022/12/06 14:35:15;;;;;;;2.17;1.73;;;;;;;;;;5037797;28;21036;-76
2022/12/06 14:37:52;;;;;;;2.63;1.53;;;;;;;;;;5037089;28;20566;-76
2022/12/06 14:40:20;;;;;;;1.60;1.50;;;;;;;;;;5019309;28;20956;-77
2022/12/06 14:43:00;;;;;;;3.40;2.20;;;;;;;;;;5034631;28;20977;-78
2022/12/06 14:45:28;;;;;;;2.70;1.90;;;;;;;;;;5031718;28;20441;-77
2022/12/06 14:47:53;;;;;;;3.37;1.63;;;;;;;;;;5022574;28;20473;-78
2022/12/06 14:50:24;;;;;;;2.97;1.60;;;;;;;;;;5035391;28;20419;-78
2022/12/06 14:52:56;;;;;;;2.40;1.70;;;;;;;;;;5029695;28;20187;-78
2022/12/06 14:55:22;;;;;;;3.33;1.80;;;;;;;;;;5034784;28;20415;-77
2022/12/06 14:57:49;;;;;;;5.60;2.03;;;;;;;;;;5036956;28;20412;-77
2022/12/06 15:00:24;;;;;;;5.03;1.83;;;;;;;;;;5016150;28;20572;-78
2022/12/06 15:02:59;;;;;;;3.17;1.83;;;;;;;;;;5036710;28;20938;-77
2022/12/06 15:05:30;;;;;;;3.80;2.00;;;;;;;;;;5037744;28;20407;-77
2022/12/06 15:07:56;;;;;;;1.90;1.57;;;;;;;;;;5021570;28;20427;-78
2022/12/06 15:10:24;;;;;;;2.50;1.53;;;;;;;;;;5011225;28;20492;-77
2022/12/06 15:12:56;;;;;;;5.63;2.50;;;;;;;;;;5036378;28;20172;-77
2022/12/06 15:15:31;;;;;;;2.13;1.90;;;;;;;;;;5035404;28;20848;-77
2022/12/06 15:18:15;;;;;;;5.60;2.20;;;;;;;;;;5036829;28;20419;-78